Stevenson, AL

7:22 AM CDT on October 24, 2014 (GMT -0500)
Lovell | Change Station
CLOSE
Current Station
Airport
Location: Chattanooga,
Elevation: 689 ft
Nearby Weather Stations

Elev 689 ft 35.04 °N, 85.20 °W | Updated 29 minutes ago

Mostly Cloudy
Mostly Cloudy
51 °F
Feels Like 51 °F
N
8
Wind Variable Wind from North

Today
High -- | Low -- °F
--% Chance of Precip.
Yesterday
High -- | Low -- °F
Precip. -- in
6:56 AM 5:57 PM
New Moon, 0% visible
Pressure 30.09 in
Visibility 10.0 miles
Clouds Mostly Cloudy 18000 ft
Mostly Cloudy 23000 ft
Dew Point 46 °F
Humidity 83%
Rainfall 0.00 in
Snow Depth Not available.
UV 0 out of 12
Pollen 1.60 out of 12
Air Quality Not available.
Flu Activity Sporadic
METAR KCHA 241153Z 36007KT 10SM BKN180 BKN230 11/08 A3009 RMK AO2 SLP189 T01060078 10111 20089 50000

More Conditions Fewer Conditions

Pressure 30.09 in
Visibility 10.0 miles
Clouds Mostly Cloudy 18000 ft
Mostly Cloudy 23000 ft
Dew Point 46 °F
Humidity 83%
Rainfall 0.00 in
Snow Depth Not available.
UV 0 out of 12
Pollen 1.60 out of 12
Air Quality Not available.
Flu Activity Sporadic
METAR KCHA 241153Z 36007KT 10SM BKN180 BKN230 11/08 A3009 RMK AO2 SLP189 T01060078 10111 20089 50000

More Conditions Fewer Conditions

10-Day Weather Forecast

Almanac

Astronomy

Oct. 24, 2014 Rise Set
Actual Time 6:56 AM CDT 5:57 PM CDT
Civil Twilight 6:31 AM CDT 6:23 PM CDT
Nautical Twilight 6:01 AM CDT 6:52 PM CDT
Astronomical Twilight 5:32 AM CDT 7:22 PM CDT
Moon 7:34 AM CDT 6:39 PM CDT
Length of Visible Light 11h 52m
Length of Day
11h 00m
Tomorrow will be 2m 0s shorter.
New Moon, 0% of the Moon is Illuminated
Today
New Moon
Oct 30
First Quarter
Nov 6
Full
Nov 14
Last Quarter
Nov 22
New

Today's Extremes

State Highs State Lows

Community

WunderPhotos

Upload Photos

1,764,533 photos uploaded!

Nearby

Snow Depth

Station Depth Elevation
No new snow has been reported.

Earthquake Activity

City Distance Mag. Time & Date
No recent earthquake activity has been reported nearby.
Minimum magnitude displayed is 2.5.

Coastal Water Temperatures

Place Temperature
No Stations Reporting

Nearby Weather Stations